Time;durP1;ratioP1;P1;durP2;ratioP2;P2;SDS_P1;SDS_P2;PMS_P1;PMS_P2;Temp;Humidity;BMP_temperature;BMP_pressure;BME280_temperature;BME280_humidity;BME280_pressure;Samples;Min_cycle;Max_cycle;Signal;HPM_P1;HPM_P2
2023/04/05 00:00:42;;;;;;;1.40;1.30;;;0.70;99.90;;;;;;5094521;28;20412;-80
2023/04/05 00:03:11;;;;;;;1.60;1.50;;;0.80;99.90;;;;;;5094354;28;20036;-80
2023/04/05 00:05:37;;;;;;;1.25;1.20;;;0.80;99.90;;;;;;5093607;28;20484;-80
2023/04/05 00:08:07;;;;;;;1.55;1.45;;;0.90;99.90;;;;;;5092888;28;20119;-80
2023/04/05 00:10:32;;;;;;;1.20;1.20;;;1.00;99.90;;;;;;5093881;28;20047;-80
2023/04/05 00:12:58;;;;;;;1.20;1.20;;;1.00;99.90;;;;;;5094074;28;20036;-80
2023/04/05 00:15:25;;;;;;;1.30;1.27;;;1.00;99.90;;;;;;5094333;28;20036;-81
2023/04/05 00:17:52;;;;;;;1.63;1.52;;;1.00;99.90;;;;;;5093096;28;20043;-81
2023/04/05 00:20:19;;;;;;;1.60;1.50;;;1.00;99.90;;;;;;5092673;28;20396;-80
2023/04/05 00:22:45;;;;;;;1.45;1.40;;;1.00;99.90;;;;;;5092605;28;20480;-80
2023/04/05 00:25:11;;;;;;;1.45;1.35;;;1.00;99.90;;;;;;5126533;27;20040;-80
2023/04/05 00:27:38;;;;;;;1.50;1.40;;;1.00;99.90;;;;;;5092405;28;20511;-79
2023/04/05 00:30:04;;;;;;;1.83;1.48;;;0.90;99.90;;;;;;5075574;28;20083;-80
2023/04/05 00:32:29;;;;;;;1.58;1.48;;;0.90;99.90;;;;;;5093986;28;20063;-80
2023/04/05 00:34:55;;;;;;;1.80;1.70;;;0.90;99.90;;;;;;5093923;28;20395;-80
2023/04/05 00:37:21;;;;;;;1.25;1.23;;;0.90;99.90;;;;;;5093652;28;20063;-79
2023/04/05 00:39:46;;;;;;;1.75;1.40;;;0.90;99.90;;;;;;5093591;28;20044;-80
2023/04/05 00:42:13;;;;;;;1.40;1.30;;;0.90;99.90;;;;;;5093778;28;20040;-80
2023/04/05 00:44:38;;;;;;;1.30;1.30;;;0.90;99.90;;;;;;5092215;28;20605;-80
2023/04/05 00:47:06;;;;;;;1.50;1.40;;;0.90;99.90;;;;;;5075669;28;20084;-80
2023/04/05 00:49:33;;;;;;;1.60;1.50;;;0.90;99.90;;;;;;5092255;28;20035;-80
2023/04/05 00:51:59;;;;;;;1.83;1.73;;;0.70;99.90;;;;;;5092554;28;20043;-80
2023/04/05 00:54:27;;;;;;;1.60;1.50;;;0.50;99.90;;;;;;5092521;28;20113;-80
2023/04/05 00:56:55;;;;;;;1.52;1.40;;;0.60;99.90;;;;;;5092151;28;20052;-80
2023/04/05 00:59:20;;;;;;;1.50;1.40;;;0.60;99.90;;;;;;5092419;28;20044;-80
2023/04/05 01:01:54;;;;;;;1.50;1.40;;;0.60;99.90;;;;;;5092157;28;20503;-80
2023/04/05 01:04:25;;;;;;;1.60;1.50;;;0.70;99.90;;;;;;5093676;28;20097;-80
2023/04/05 01:06:57;;;;;;;1.70;1.60;;;0.70;99.90;;;;;;5075480;28;20032;-80
2023/04/05 01:09:44;;;;;;;1.65;1.30;;;0.60;99.90;;;;;;5093122;28;20042;-79
2023/04/05 01:12:16;;;;;;;1.30;1.30;;;0.60;99.90;;;;;;5092015;28;20046;-79
2023/04/05 01:14:50;;;;;;;1.60;1.50;;;0.60;99.90;;;;;;5091996;28;20040;-79
2023/04/05 01:17:21;;;;;;;1.77;1.38;;;0.50;99.90;;;;;;5091886;28;20122;-80
2023/04/05 01:19:52;;;;;;;1.70;1.60;;;0.50;99.90;;;;;;5093579;28;20067;-80
2023/04/05 01:22:40;;;;;;;1.38;1.30;;;0.40;99.90;;;;;;5093105;28;20468;-80
2023/04/05 01:25:40;;;;;;;1.60;1.50;;;0.40;99.90;;;;;;5097476;28;20048;-80
2023/04/05 01:28:27;;;;;;;1.30;1.25;;;0.20;99.90;;;;;;5096288;28;20438;-80
2023/04/05 01:31:26;;;;;;;1.55;1.35;;;0.20;99.90;;;;;;5079213;28;20493;-80
2023/04/05 01:34:08;;;;;;;1.50;1.40;;;0.10;99.90;;;;;;5096965;28;20322;-80
2023/04/05 01:36:37;;;;;;;1.70;1.60;;;-0.10;99.90;;;;;;5097352;28;20048;-80
2023/04/05 01:39:06;;;;;;;1.33;1.33;;;-0.10;99.90;;;;;;5095585;28;20135;-80
2023/04/05 01:41:32;;;;;;;1.73;1.63;;;-0.10;99.90;;;;;;5096001;28;20043;-80
2023/04/05 01:43:58;;;;;;;1.63;1.52;;;-0.10;99.90;;;;;;5095713;28;20443;-80
2023/04/05 01:46:23;;;;;;;1.48;1.38;;;-0.10;99.90;;;;;;5095605;28;20036;-80
2023/04/05 01:48:49;;;;;;;1.40;1.30;;;-0.10;99.90;;;;;;5095642;28;20032;-80
2023/04/05 01:51:15;;;;;;;1.45;1.35;;;-0.30;99.90;;;;;;5078566;28;20028;-80
2023/04/05 01:53:40;;;;;;;1.50;1.40;;;-0.30;99.90;;;;;;5095574;28;20071;-80
2023/04/05 01:56:06;;;;;;;1.42;1.40;;;-0.40;99.90;;;;;;5096988;28;20396;-80
2023/04/05 01:58:32;;;;;;;1.50;1.40;;;-0.50;99.90;;;;;;5096864;28;20094;-80
2023/04/05 02:00:57;;;;;;;1.77;1.67;;;-0.50;99.90;;;;;;5095333;28;20040;-80
2023/04/05 02:03:23;;;;;;;1.60;1.50;;;-0.50;99.90;;;;;;5078579;28;20067;-80
2023/04/05 02:05:50;;;;;;;1.65;1.55;;;-0.50;99.90;;;;;;5095232;28;20507;-80
2023/04/05 02:08:16;;;;;;;1.35;1.30;;;-0.40;99.90;;;;;;5095163;28;20050;-80
2023/04/05 02:10:41;;;;;;;1.45;1.35;;;-0.50;99.90;;;;;;5095329;28;20044;-80
2023/04/05 02:13:07;;;;;;;1.70;1.60;;;-0.50;99.90;;;;;;5078229;28;20032;-80
2023/04/05 02:15:33;;;;;;;1.90;1.80;;;-0.50;99.90;;;;;;5095730;28;20047;-80
2023/04/05 02:18:00;;;;;;;1.80;1.70;;;-0.40;99.90;;;;;;5096637;28;20094;-79
2023/04/05 02:20:27;;;;;;;1.45;1.35;;;-0.40;99.90;;;;;;5094992;28;20472;-80
2023/04/05 02:22:53;;;;;;;1.70;1.60;;;-0.40;99.90;;;;;;5096370;28;20043;-80
2023/04/05 02:25:19;;;;;;;1.60;1.50;;;-0.40;99.90;;;;;;5096393;28;20365;-80
2023/04/05 02:27:44;;;;;;;1.70;1.60;;;-0.40;99.90;;;;;;5077882;28;20105;-80
2023/04/05 02:30:12;;;;;;;1.30;1.30;;;-0.40;99.90;;;;;;5095931;28;20127;-80
2023/04/05 02:32:44;;;;;;;1.42;1.38;;;-0.50;99.90;;;;;;5096258;28;20089;-80
2023/04/05 02:35:10;;;;;;;1.60;1.50;;;-0.50;99.90;;;;;;5094225;28;20052;-80
2023/04/05 02:37:37;;;;;;;1.60;1.50;;;-0.50;99.90;;;;;;5095639;28;20496;-80
2023/04/05 02:40:08;;;;;;;1.98;1.40;;;-0.50;99.90;;;;;;5094617;28;20109;-80
2023/04/05 02:42:34;;;;;;;1.40;1.30;;;-0.60;99.90;;;;;;5094958;28;20093;-80
2023/04/05 02:45:00;;;;;;;1.60;1.50;;;-0.70;99.90;;;;;;5095930;28;20476;-80
2023/04/05 02:47:25;;;;;;;1.88;1.77;;;-0.80;99.90;;;;;;5077509;28;20036;-80
2023/04/05 02:49:51;;;;;;;1.50;1.40;;;-0.70;99.90;;;;;;5095822;28;20364;-80
2023/04/05 02:52:16;;;;;;;1.67;1.58;;;-0.70;99.90;;;;;;5095763;28;20075;-80
2023/04/05 02:54:43;;;;;;;1.50;1.40;;;-0.70;99.90;;;;;;5128399;27;20403;-80
2023/04/05 02:57:10;;;;;;;1.75;1.45;;;-0.60;99.90;;;;;;5077258;28;20048;-80
2023/04/05 02:59:37;;;;;;;1.50;1.40;;;-0.70;99.90;;;;;;5094594;28;20040;-80
2023/04/05 03:02:06;;;;;;;1.20;1.20;;;-0.80;99.90;;;;;;5077367;28;20036;-80
2023/04/05 03:04:33;;;;;;;1.40;1.30;;;-0.90;99.90;;;;;;5128284;27;20051;-80
2023/04/05 03:07:03;;;;;;;1.50;1.40;;;-1.00;99.90;;;;;;5094098;28;20044;-80
2023/04/05 03:09:32;;;;;;;1.70;1.60;;;-0.90;99.90;;;;;;5095617;28;20077;-80
2023/04/05 03:12:02;;;;;;;1.65;1.55;;;-0.90;99.90;;;;;;5095527;28;20032;-80
2023/04/05 03:14:32;;;;;;;1.50;1.40;;;-1.00;99.90;;;;;;5077060;28;20484;-80
2023/04/05 03:16:57;;;;;;;2.00;1.90;;;-1.00;99.90;;;;;;5094070;28;20174;-80
2023/04/05 03:19:25;;;;;;;2.13;1.95;;;-1.00;99.90;;;;;;5127819;27;20544;-80
2023/04/05 03:21:54;;;;;;;1.98;1.88;;;-1.00;99.90;;;;;;5076813;28;20476;-80
2023/04/05 03:24:20;;;;;;;2.17;2.07;;;-0.90;99.90;;;;;;5076753;28;20050;-80
2023/04/05 03:26:47;;;;;;;2.00;1.90;;;-0.90;99.90;;;;;;5093580;28;20463;-80
2023/04/05 03:29:13;;;;;;;1.90;1.80;;;-0.80;99.90;;;;;;5093615;28;20541;-80
2023/04/05 03:31:39;;;;;;;1.95;1.85;;;-0.70;99.90;;;;;;5076696;28;20032;-80
2023/04/05 03:34:04;;;;;;;1.77;1.67;;;-0.80;99.90;;;;;;5127847;27;20047;-80
2023/04/05 03:36:40;;;;;;;2.25;1.70;;;-0.90;99.90;;;;;;5095142;28;20101;-80
2023/04/05 03:39:08;;;;;;;1.60;1.50;;;-0.90;99.90;;;;;;5093269;28;20052;-80
2023/04/05 03:41:34;;;;;;;1.70;1.60;;;-1.00;99.90;;;;;;5094897;28;20032;-80
2023/04/05 03:44:00;;;;;;;1.83;1.73;;;-1.10;99.90;;;;;;5093467;28;20119;-80
2023/04/05 03:46:25;;;;;;;1.90;1.80;;;-1.20;99.90;;;;;;5093564;28;20036;-80
2023/04/05 03:48:51;;;;;;;1.73;1.60;;;-1.10;99.90;;;;;;5094864;28;20036;-80
2023/04/05 03:51:17;;;;;;;1.70;1.60;;;-1.00;99.90;;;;;;5093317;28;20040;-80
2023/04/05 03:53:44;;;;;;;2.03;1.92;;;-1.10;99.90;;;;;;5093234;28;20048;-80
2023/04/05 03:56:10;;;;;;;1.70;1.60;;;-1.00;99.90;;;;;;5094713;28;20051;-80
2023/04/05 03:58:36;;;;;;;1.90;1.80;;;-1.00;99.90;;;;;;5093166;28;20035;-80
2023/04/05 04:01:01;;;;;;;2.00;1.90;;;-0.90;99.90;;;;;;5093037;28;20549;-80
2023/04/05 04:03:27;;;;;;;1.88;1.77;;;-0.90;99.90;;;;;;5094403;28;20040;-80
2023/04/05 04:05:55;;;;;;;2.38;1.77;;;-1.00;99.90;;;;;;5092941;28;20093;-80
2023/04/05 04:08:20;;;;;;;1.92;1.80;;;-1.10;99.90;;;;;;5127077;27;20055;-80
2023/04/05 04:10:46;;;;;;;1.80;1.70;;;-1.30;99.90;;;;;;5092808;28;20040;-80
2023/04/05 04:13:12;;;;;;;2.55;1.90;;;-1.30;99.90;;;;;;5126781;27;20036;-80
2023/04/05 04:15:37;;;;;;;2.00;1.90;;;-1.30;99.90;;;;;;5092707;28;20043;-80
2023/04/05 04:18:03;;;;;;;1.85;1.75;;;-1.30;99.90;;;;;;5094299;28;20391;-80
2023/04/05 04:20:29;;;;;;;2.47;2.28;;;-1.30;99.90;;;;;;5092770;28;20047;-80
2023/04/05 04:22:56;;;;;;;2.00;1.80;;;-1.30;99.90;;;;;;5075696;28;20035;-80
2023/04/05 04:25:22;;;;;;;2.25;2.00;;;-1.30;99.90;;;;;;5093783;28;20479;-80
2023/04/05 04:27:49;;;;;;;2.10;1.90;;;-1.20;99.90;;;;;;5094110;28;20040;-80
2023/04/05 04:30:14;;;;;;;1.80;1.70;;;-1.30;99.90;;;;;;5094032;28;20036;-80
2023/04/05 04:32:51;;;;;;;2.00;1.90;;;-1.30;99.90;;;;;;5092544;28;20043;-80
2023/04/05 04:35:19;;;;;;;1.80;1.70;;;-1.30;99.90;;;;;;5092507;28;20127;-80
2023/04/05 04:37:46;;;;;;;1.80;1.70;;;-1.40;99.90;;;;;;5092519;28;20056;-80
2023/04/05 04:40:18;;;;;;;1.50;1.40;;;-1.40;99.90;;;;;;5093901;28;20050;-80
2023/04/05 04:42:47;;;;;;;1.70;1.60;;;-1.50;99.90;;;;;;5093667;28;20046;-80
2023/04/05 04:45:17;;;;;;;1.70;1.60;;;-1.50;99.90;;;;;;5126533;27;20044;-80
2023/04/05 04:47:48;;;;;;;1.67;1.58;;;-1.60;99.90;;;;;;5075793;28;20031;-80
2023/04/05 04:50:14;;;;;;;1.80;1.70;;;-1.60;99.90;;;;;;5093901;28;20039;-80
2023/04/05 04:52:40;;;;;;;1.70;1.60;;;-1.60;99.90;;;;;;5092338;28;20093;-80
2023/04/05 04:55:08;;;;;;;1.92;1.80;;;-1.50;99.90;;;;;;5092711;28;20055;-80
2023/04/05 04:57:34;;;;;;;2.10;2.00;;;-1.40;99.90;;;;;;5075067;28;20044;-80
2023/04/05 05:00:00;;;;;;;2.38;1.88;;;-1.40;99.90;;;;;;5092239;28;20404;-80
2023/04/05 05:02:26;;;;;;;2.10;1.90;;;-1.30;99.90;;;;;;5092384;28;20388;-80
2023/04/05 05:04:52;;;;;;;2.30;2.10;;;-1.20;99.90;;;;;;5126869;28;20461;-80
2023/04/05 05:07:18;;;;;;;2.17;2.08;;;-1.20;99.90;;;;;;5092070;28;20036;-80
2023/04/05 05:09:44;;;;;;;2.10;2.00;;;-1.10;99.90;;;;;;5093692;28;20051;-80
2023/04/05 05:12:10;;;;;;;3.47;2.00;;;-1.10;99.90;;;;;;5092956;28;20043;-80
2023/04/05 05:14:36;;;;;;;2.10;2.00;;;-1.10;99.90;;;;;;5093502;28;20455;-80
2023/04/05 05:17:04;;;;;;;2.08;1.98;;;-1.20;99.90;;;;;;5092113;28;20425;-80
2023/04/05 05:19:30;;;;;;;2.10;1.90;;;-1.20;99.90;;;;;;5092198;28;20048;-80
2023/04/05 05:21:56;;;;;;;1.80;1.70;;;-1.20;99.90;;;;;;5092003;28;20046;-80
2023/04/05 05:24:22;;;;;;;2.05;1.95;;;-1.30;99.90;;;;;;5091974;28;20052;-80
2023/04/05 05:26:47;;;;;;;2.00;1.90;;;-1.30;99.90;;;;;;5093504;28;20081;-80
2023/04/05 05:29:13;;;;;;;1.83;1.60;;;-1.40;99.90;;;;;;5093493;28;20039;-71
2023/04/05 05:31:39;;;;;;;1.73;1.63;;;-1.50;99.90;;;;;;5091941;28;20548;-78
2023/04/05 05:34:05;;;;;;;2.15;2.05;;;-1.50;99.90;;;;;;5092122;28;20036;-75
2023/04/05 05:36:31;;;;;;;2.00;1.90;;;-1.50;99.90;;;;;;5092091;28;20036;-72
2023/04/05 05:38:57;;;;;;;2.08;1.90;;;-1.40;99.90;;;;;;5074895;28;20055;-75
2023/04/05 05:41:22;;;;;;;2.35;2.15;;;-1.30;99.90;;;;;;5092074;28;20044;-75
2023/04/05 05:43:48;;;;;;;2.28;2.08;;;-1.20;99.90;;;;;;5091978;28;20089;-76
2023/04/05 05:46:14;;;;;;;2.10;1.90;;;-1.20;99.90;;;;;;5093376;28;20038;-75
2023/04/05 05:48:40;;;;;;;2.40;2.20;;;-1.10;99.90;;;;;;5074856;28;20047;-76
2023/04/05 05:51:09;;;;;;;2.35;2.15;;;-1.00;99.90;;;;;;5093342;28;20040;-76
2023/04/05 05:53:39;;;;;;;2.25;2.15;;;-0.90;99.90;;;;;;5093774;28;20051;-76
2023/04/05 05:56:05;;;;;;;2.17;2.07;;;-0.80;99.90;;;;;;5093080;28;20042;-75
2023/04/05 05:58:31;;;;;;;2.40;2.20;;;-0.80;99.90;;;;;;5091885;28;20119;-76
2023/04/05 06:00:58;;;;;;;2.03;1.92;;;-0.70;99.90;;;;;;5074847;28;20154;-75
2023/04/05 06:03:24;;;;;;;2.45;2.30;;;-0.60;99.90;;;;;;5091918;28;20044;-75
2023/04/05 06:05:58;;;;;;;2.58;2.40;;;-0.50;99.90;;;;;;5091747;28;20032;-73
2023/04/05 06:08:26;;;;;;;2.53;2.38;;;-0.50;99.90;;;;;;5091822;28;20086;-71
2023/04/05 06:10:52;;;;;;;2.60;2.40;;;-0.40;99.90;;;;;;5094692;28;20565;-70
2023/04/05 06:13:19;;;;;;;2.75;2.55;;;-0.30;99.90;;;;;;5096688;28;20036;-77
2023/04/05 06:15:46;;;;;;;2.60;2.40;;;-0.30;99.90;;;;;;5096591;28;20089;-74
2023/04/05 06:18:12;;;;;;;2.42;2.25;;;-0.20;99.90;;;;;;5095165;28;20040;-77
2023/04/05 06:20:39;;;;;;;2.60;2.40;;;-0.10;99.90;;;;;;5078124;28;20040;-76
2023/04/05 06:23:09;;;;;;;2.53;2.40;;;-0.10;99.90;;;;;;5095160;28;20105;-77
2023/04/05 06:25:35;;;;;;;2.85;2.65;;;0.00;99.90;;;;;;5095094;28;20040;-76
2023/04/05 06:28:02;;;;;;;2.78;2.55;;;0.10;99.90;;;;;;5095135;28;20425;-76
2023/04/05 06:30:28;;;;;;;2.70;2.50;;;0.10;99.90;;;;;;5096295;28;20129;-77
2023/04/05 06:32:53;;;;;;;2.90;2.70;;;0.20;99.90;;;;;;5094679;28;20071;-74
2023/04/05 06:35:23;;;;;;;2.65;2.45;;;0.30;99.90;;;;;;5094682;28;20051;-76
2023/04/05 06:37:49;;;;;;;2.70;2.50;;;0.30;99.90;;;;;;5077615;28;20471;-75
2023/04/05 06:40:16;;;;;;;3.20;3.00;;;0.50;99.90;;;;;;5094512;28;20050;-80
2023/04/05 06:42:42;;;;;;;3.00;2.80;;;0.60;99.90;;;;;;5096551;28;20399;-80
2023/04/05 06:45:08;;;;;;;2.97;2.78;;;0.60;99.90;;;;;;5077450;28;20040;-80
2023/04/05 06:47:35;;;;;;;3.10;2.90;;;0.70;99.90;;;;;;5094678;28;20054;-80
2023/04/05 06:50:01;;;;;;;2.80;2.60;;;0.80;99.90;;;;;;5094663;28;20396;-80
2023/04/05 06:52:27;;;;;;;3.22;3.03;;;0.90;99.90;;;;;;5095920;28;20032;-79
2023/04/05 06:54:53;;;;;;;3.30;3.10;;;0.90;99.90;;;;;;5094026;28;20048;-79
2023/04/05 06:57:19;;;;;;;3.00;2.80;;;1.00;99.90;;;;;;5077575;28;20044;-78
2023/04/05 06:59:45;;;;;;;3.15;2.90;;;1.10;99.90;;;;;;5077192;28;20074;-79
2023/04/05 07:02:11;;;;;;;2.97;2.78;;;1.20;99.90;;;;;;5094538;28;20119;-79
2023/04/05 07:04:37;;;;;;;3.13;2.92;;;1.30;99.90;;;;;;5077073;28;20131;-75
2023/04/05 07:07:05;;;;;;;3.10;2.90;;;1.30;99.90;;;;;;5095610;28;20047;-75
2023/04/05 07:09:34;;;;;;;3.20;3.00;;;1.40;99.90;;;;;;5094356;28;20059;-76
2023/04/05 07:12:03;;;;;;;3.22;3.03;;;1.50;99.90;;;;;;5094049;28;20101;-79
2023/04/05 07:14:37;;;;;;;3.10;2.90;;;1.60;99.90;;;;;;5094115;28;20078;-76
2023/04/05 07:17:05;;;;;;;2.88;2.67;;;1.70;99.90;;;;;;5094065;28;20488;-76
2023/04/05 07:19:30;;;;;;;3.20;2.90;;;1.70;99.90;;;;;;5094048;28;20098;-77
2023/04/05 07:21:58;;;;;;;2.97;2.78;;;1.90;99.90;;;;;;5076566;28;20036;-77
2023/04/05 07:24:24;;;;;;;3.05;2.78;;;1.90;99.90;;;;;;5076703;28;20114;-77
2023/04/05 07:26:50;;;;;;;3.00;2.80;;;2.00;99.90;;;;;;5094015;28;20054;-78
2023/04/05 07:29:15;;;;;;;2.78;2.63;;;2.00;99.90;;;;;;5076924;28;20365;-75
2023/04/05 07:31:41;;;;;;;2.92;2.72;;;2.10;99.90;;;;;;5076706;28;20040;-83
2023/04/05 07:34:06;;;;;;;2.90;2.70;;;2.10;99.90;;;;;;5094666;28;20044;-74
2023/04/05 07:36:32;;;;;;;2.47;2.38;;;2.30;99.90;;;;;;5093672;28;20050;-78
2023/04/05 07:38:59;;;;;;;3.10;2.90;;;2.40;99.90;;;;;;5076344;28;20507;-72
2023/04/05 07:41:34;;;;;;;2.88;2.63;;;2.40;99.90;;;;;;5094900;28;20076;-74
2023/04/05 07:44:00;;;;;;;2.70;2.50;;;2.50;99.90;;;;;;5093330;28;20498;-73
2023/04/05 07:46:26;;;;;;;2.70;2.50;;;2.60;99.90;;;;;;5093535;28;20388;-74
2023/04/05 07:48:53;;;;;;;3.08;2.88;;;2.70;99.90;;;;;;5093176;28;20078;-79
2023/04/05 07:51:18;;;;;;;2.67;2.50;;;2.70;99.90;;;;;;5076334;28;20043;-76
2023/04/05 07:53:44;;;;;;;2.45;2.30;;;2.70;99.90;;;;;;5094584;28;20048;-75
2023/04/05 07:56:12;;;;;;;2.33;2.22;;;2.80;99.90;;;;;;5093433;28;20043;-75
2023/04/05 07:58:40;;;;;;;2.35;2.15;;;2.90;99.90;;;;;;5076299;28;20059;-75
2023/04/05 08:01:08;;;;;;;2.58;2.20;;;2.90;99.90;;;;;;5093238;28;20047;-75
2023/04/05 08:03:35;;;;;;;2.13;2.03;;;3.00;99.90;;;;;;5092804;28;20043;-75
2023/04/05 08:06:18;;;;;;;1.90;1.80;;;3.10;99.90;;;;;;5092826;28;20043;-75
2023/04/05 08:08:45;;;;;;;2.05;1.95;;;3.20;99.90;;;;;;5093202;28;20036;-75
2023/04/05 08:11:11;;;;;;;2.00;1.90;;;3.20;99.90;;;;;;5092769;28;20123;-75
2023/04/05 08:13:40;;;;;;;2.05;1.95;;;3.40;99.90;;;;;;5092698;28;20531;-75
2023/04/05 08:16:06;;;;;;;2.30;2.10;;;3.40;99.90;;;;;;5092666;28;20052;-75
2023/04/05 08:18:32;;;;;;;2.08;1.88;;;3.40;99.90;;;;;;5092639;28;20123;-75
2023/04/05 08:20:58;;;;;;;2.30;2.20;;;3.50;99.90;;;;;;5094170;28;20140;-75
2023/04/05 08:23:23;;;;;;;2.00;1.90;;;3.60;99.90;;;;;;5075641;28;20131;-76
2023/04/05 08:25:49;;;;;;;2.00;1.90;;;3.80;99.90;;;;;;5092519;28;20036;-75
2023/04/05 08:28:15;;;;;;;2.00;1.90;;;3.80;99.90;;;;;;5094095;28;20032;-75
2023/04/05 08:30:41;;;;;;;2.13;1.92;;;3.90;99.90;;;;;;5092526;28;20043;-73
2023/04/05 08:33:06;;;;;;;2.20;2.10;;;4.00;99.90;;;;;;5091812;28;20047;-73
2023/04/05 08:35:35;;;;;;;1.92;1.83;;;3.90;99.90;;;;;;5093925;28;20047;-71
2023/04/05 08:38:00;;;;;;;1.85;1.75;;;4.00;99.90;;;;;;5092177;28;20088;-73
2023/04/05 08:40:43;;;;;;;1.58;1.48;;;4.20;99.90;;;;;;5075522;28;20074;-73
2023/04/05 08:43:27;;;;;;;1.75;1.65;;;4.30;99.90;;;;;;5126415;27;20046;-75
2023/04/05 08:45:54;;;;;;;1.77;1.67;;;4.40;99.90;;;;;;5092578;28;20039;-75
2023/04/05 08:48:20;;;;;;;1.73;1.63;;;4.60;99.90;;;;;;5092186;28;20071;-74
2023/04/05 08:50:52;;;;;;;1.30;1.30;;;4.60;99.90;;;;;;5092258;28;20083;-75
2023/04/05 08:53:18;;;;;;;1.75;1.65;;;4.80;99.90;;;;;;5093698;28;20123;-75
2023/04/05 08:55:49;;;;;;;1.30;1.30;;;5.00;99.90;;;;;;5092400;28;20040;-75
2023/04/05 08:58:15;;;;;;;1.50;1.40;;;5.10;99.90;;;;;;5092100;28;20050;-75
2023/04/05 09:00:42;;;;;;;1.30;1.20;;;5.20;99.90;;;;;;5075593;28;20078;-75
2023/04/05 09:03:15;;;;;;;1.30;1.30;;;5.30;99.90;;;;;;5075279;28;20390;-75
2023/04/05 09:05:45;;;;;;;1.17;1.17;;;5.40;99.90;;;;;;5075559;28;20529;-75
2023/04/05 09:08:11;;;;;;;1.20;1.20;;;5.40;99.90;;;;;;5075200;28;20047;-75
2023/04/05 09:10:37;;;;;;;1.20;1.20;;;5.50;99.90;;;;;;5092014;28;20496;-75
2023/04/05 09:13:03;;;;;;;1.38;1.27;;;5.50;99.90;;;;;;5093513;28;20032;-75
2023/04/05 09:15:29;;;;;;;1.50;1.40;;;5.60;99.90;;;;;;5093549;28;20119;-75
2023/04/05 09:17:55;;;;;;;1.35;1.25;;;5.60;99.90;;;;;;5093474;28;20107;-75
2023/04/05 09:20:21;;;;;;;1.30;1.20;;;5.80;99.90;;;;;;5093491;28;20047;-75
2023/04/05 09:22:47;;;;;;;1.27;1.17;;;5.80;99.90;;;;;;5093497;28;20036;-75
2023/04/05 09:25:30;;;;;;;1.10;1.00;;;5.90;99.90;;;;;;5093319;28;20169;-75
2023/04/05 09:27:57;;;;;;;1.00;1.00;;;6.10;99.90;;;;;;5091833;28;20040;-76
2023/04/05 09:30:23;;;;;;;1.10;1.10;;;6.20;99.90;;;;;;5093354;28;20028;-75
2023/04/05 09:32:53;;;;;;;1.33;1.23;;;6.30;99.90;;;;;;5091889;28;20032;-75
2023/04/05 09:35:27;;;;;;;;;;;6.30;99.90;;;;;;5075599;28;20075;-76
2023/04/05 09:37:57;;;;;;;0.90;0.90;;;6.40;99.90;;;;;;5091603;28;19974;-76
2023/04/05 09:40:38;;;;;;;1.15;1.15;;;6.40;99.90;;;;;;5091781;28;20421;-75
2023/04/05 09:43:04;;;;;;;1.25;1.20;;;6.50;99.90;;;;;;5075230;28;20185;-75
2023/04/05 09:45:37;;;;;;;0.90;0.90;;;6.60;99.90;;;;;;5095774;28;20489;-75
2023/04/05 09:48:02;;;;;;;1.23;1.13;;;6.70;99.90;;;;;;5095779;28;20139;-74
2023/04/05 09:50:28;;;;;;;1.00;1.00;;;6.70;99.90;;;;;;5095700;28;20039;-75
2023/04/05 09:53:17;;;;;;;1.10;1.00;;;6.70;99.90;;;;;;5095469;28;20135;-75
2023/04/05 09:55:43;;;;;;;0.90;0.90;;;6.90;99.90;;;;;;5095740;28;20051;-75
2023/04/05 09:58:17;;;;;;;0.80;0.80;;;6.90;99.90;;;;;;5095708;28;20036;-75
2023/04/05 10:00:52;;;;;;;1.00;1.00;;;7.00;99.90;;;;;;5096926;28;20125;-74
2023/04/05 10:03:19;;;;;;;1.40;0.98;;;7.20;99.90;;;;;;5078117;28;20039;-75
2023/04/05 10:05:46;;;;;;;0.88;0.88;;;7.30;99.90;;;;;;5095711;28;20052;-75
2023/04/05 10:08:14;;;;;;;1.10;1.10;;;7.40;99.90;;;;;;5095337;28;20083;-75
2023/04/05 10:10:48;;;;;;;1.05;1.05;;;7.50;99.10;;;;;;5095352;28;20043;-75
2023/04/05 10:13:15;;;;;;;0.98;0.98;;;7.50;98.00;;;;;;5095098;28;20457;-75
2023/04/05 10:15:48;;;;;;;1.13;1.00;;;7.60;98.50;;;;;;5096471;28;20040;-73
2023/04/05 10:18:22;;;;;;;1.20;1.10;;;7.70;98.70;;;;;;5094964;28;20039;-72
2023/04/05 10:20:50;;;;;;;1.10;1.00;;;7.80;97.40;;;;;;5078104;28;20047;-76
2023/04/05 10:23:25;;;;;;;1.00;0.90;;;7.90;97.10;;;;;;5094835;28;20079;-78
2023/04/05 10:25:51;;;;;;;1.23;1.13;;;8.00;96.10;;;;;;5094835;28;20131;-78
2023/04/05 10:28:31;;;;;;;0.70;0.70;;;8.10;94.60;;;;;;5095139;28;20075;-83
2023/04/05 10:31:25;;;;;;;1.00;1.00;;;8.10;91.70;;;;;;5078083;28;20028;-76
2023/04/05 10:34:33;;;;;;;1.20;1.10;;;8.00;91.80;;;;;;5094996;28;20126;-73
2023/04/05 10:37:02;;;;;;;0.90;0.90;;;8.10;92.80;;;;;;5083582;28;20048;-72
2023/04/05 10:39:34;;;;;;;1.17;1.08;;;8.10;91.40;;;;;;5096184;28;20040;-73
2023/04/05 10:42:21;;;;;;;2.65;1.10;;;8.10;91.50;;;;;;5128635;27;20083;-73
2023/04/05 10:44:52;;;;;;;0.88;0.88;;;8.10;92.60;;;;;;5094496;28;20097;-73
2023/04/05 10:47:21;;;;;;;0.80;0.80;;;8.10;93.80;;;;;;5096003;28;20036;-73
2023/04/05 10:49:52;;;;;;;0.93;0.93;;;8.10;94.00;;;;;;5094451;28;20514;-73
2023/04/05 10:52:19;;;;;;;1.10;1.00;;;8.00;93.50;;;;;;5094676;28;20115;-73
2023/04/05 10:54:44;;;;;;;0.90;0.90;;;8.00;94.00;;;;;;5093959;28;20048;-73
2023/04/05 10:57:11;;;;;;;0.98;0.98;;;8.00;94.50;;;;;;5095756;28;20445;-73
2023/04/05 10:59:45;;;;;;;1.10;1.00;;;8.10;95.00;;;;;;5095866;28;20044;-73
2023/04/05 11:02:12;;;;;;;1.52;1.40;;;8.20;94.30;;;;;;5094558;28;20050;-72
2023/04/05 11:04:40;;;;;;;1.00;1.00;;;8.30;94.80;;;;;;5095559;28;20036;-78
2023/04/05 11:07:17;;;;;;;0.93;0.93;;;8.40;94.90;;;;;;5093947;28;20047;-72
2023/04/05 11:10:05;;;;;;;1.00;1.00;;;8.60;94.50;;;;;;5094223;28;20051;-72
2023/04/05 11:12:52;;;;;;;1.00;0.95;;;8.80;92.90;;;;;;5095426;28;20123;-72
2023/04/05 11:15:27;;;;;;;1.13;0.98;;;9.00;92.70;;;;;;5095083;28;20040;-72
2023/04/05 11:18:14;;;;;;;0.90;0.90;;;9.10;93.50;;;;;;5094126;28;20437;-72
2023/04/05 11:21:12;;;;;;;0.93;0.90;;;9.30;92.80;;;;;;5094167;28;20068;-72
2023/04/05 11:24:02;;;;;;;0.80;0.80;;;9.40;92.00;;;;;;5075325;28;20048;-71
2023/04/05 11:26:52;;;;;;;0.82;0.82;;;9.40;90.50;;;;;;5093722;28;20040;-72
2023/04/05 11:29:38;;;;;;;0.93;0.90;;;9.20;90.40;;;;;;5094620;28;20069;-72
2023/04/05 11:32:11;;;;;;;1.17;1.08;;;9.20;90.00;;;;;;5093271;28;20036;-72
2023/04/05 11:34:37;;;;;;;0.88;0.88;;;9.10;90.60;;;;;;5095013;28;20039;-72
2023/04/05 11:37:02;;;;;;;0.90;0.90;;;9.00;90.30;;;;;;5093537;28;20036;-72
2023/04/05 11:39:28;;;;;;;0.90;0.90;;;9.00;90.80;;;;;;5093393;28;20051;-72
2023/04/05 11:42:00;;;;;;;1.00;1.00;;;9.00;90.30;;;;;;5093227;28;20076;-72
2023/04/05 11:44:47;;;;;;;0.98;0.90;;;9.10;90.00;;;;;;5094716;28;20051;-72
2023/04/05 11:47:16;;;;;;;0.95;0.90;;;9.30;90.80;;;;;;5093004;28;20056;-72
2023/04/05 11:49:42;;;;;;;1.00;1.00;;;9.40;91.70;;;;;;5093422;28;20516;-72
2023/04/05 11:52:19;;;;;;;1.17;1.08;;;9.50;91.30;;;;;;5076325;28;20044;-72
2023/04/05 11:54:45;;;;;;;1.02;1.00;;;9.70;90.80;;;;;;5093289;28;20052;-72
2023/04/05 11:57:13;;;;;;;1.00;1.00;;;9.80;90.80;;;;;;5094667;28;20051;-72
2023/04/05 11:59:39;;;;;;;1.10;1.00;;;9.90;90.60;;;;;;5094349;28;20543;-73
2023/04/05 12:02:07;;;;;;;0.73;0.73;;;10.00;90.40;;;;;;5094245;28;20123;-72
2023/04/05 12:04:36;;;;;;;0.80;0.80;;;10.10;90.20;;;;;;5093248;28;20062;-72
2023/04/05 12:07:10;;;;;;;0.80;0.80;;;10.20;90.00;;;;;;5092324;28;20044;-72
2023/04/05 12:10:15;;;;;;;0.80;0.80;;;10.30;90.30;;;;;;5093080;28;20043;-72
2023/04/05 12:12:43;;;;;;;0.90;0.90;;;10.40;90.00;;;;;;5093116;28;20044;-72
2023/04/05 12:15:13;;;;;;;0.95;0.90;;;10.50;89.80;;;;;;5092660;28;20047;-72
2023/04/05 12:17:44;;;;;;;0.93;0.93;;;10.60;86.70;;;;;;5092733;28;20503;-72
2023/04/05 12:20:19;;;;;;;0.90;0.90;;;10.60;87.50;;;;;;5092940;28;20052;-72
2023/04/05 12:22:47;;;;;;;0.70;0.70;;;10.80;84.00;;;;;;5094237;28;20453;-72
2023/04/05 12:25:14;;;;;;;0.90;0.90;;;10.90;83.30;;;;;;5094002;28;20040;-72
2023/04/05 12:27:40;;;;;;;2.53;2.33;;;11.00;81.60;;;;;;5092525;28;20569;-72
2023/04/05 12:30:26;;;;;;;0.80;0.80;;;11.10;84.00;;;;;;5075635;28;20132;-72
2023/04/05 12:32:54;;;;;;;1.00;1.00;;;11.20;81.10;;;;;;5092655;28;20056;-72
2023/04/05 12:35:31;;;;;;;1.40;1.30;;;11.20;81.20;;;;;;5093971;28;20514;-72
2023/04/05 12:37:58;;;;;;;0.80;0.80;;;11.30;80.50;;;;;;5093677;28;20134;-72
2023/04/05 12:40:24;;;;;;;0.80;0.80;;;11.40;82.10;;;;;;5092345;28;20118;-72
2023/04/05 12:42:50;;;;;;;0.80;0.80;;;11.50;81.40;;;;;;5092594;28;20127;-72
2023/04/05 12:45:17;;;;;;;0.70;0.70;;;11.60;79.60;;;;;;5092257;28;20036;-72
2023/04/05 12:47:58;;;;;;;1.75;1.65;;;11.70;79.30;;;;;;5093451;28;20491;-72
2023/04/05 12:50:29;;;;;;;0.90;0.90;;;11.80;79.10;;;;;;5093474;28;20032;-72
2023/04/05 12:52:59;;;;;;;1.05;0.90;;;11.90;76.00;;;;;;5092230;28;20124;-72
2023/04/05 12:55:27;;;;;;;0.70;0.70;;;11.90;75.40;;;;;;5092237;28;20036;-72
2023/04/05 12:57:58;;;;;;;2.50;2.40;;;12.00;76.50;;;;;;5075335;28;20040;-72
2023/04/05 13:00:26;;;;;;;1.05;1.05;;;12.10;78.80;;;;;;5093681;28;20036;-72
2023/04/05 13:02:53;;;;;;;0.82;0.82;;;12.30;78.70;;;;;;5092316;28;20086;-72